Anco, KY

1:18 PM EDT on July 30, 2014 (GMT -0400)
Carroll (KJKL) Elev 1381 ft | 37.59 °N, 83.31 °W | Change Station

Current weather conditions updated 25 minutes ago

Scattered Clouds
Scattered Clouds
72 °F
Feels Like 72 °F
N
0
Wind Variable Wind from North

Today is forecast to be Warmer than yesterday.

Today
High -- | Low -- °F
--% Chance of Precip.
Yesterday
High -- | Low -- °F
Precip. -- in
6:35 AM 8:41 PM
Waxing Crescent, 12% visible
Pressure 30.14 in
Visibility 10.0 miles
Clouds Scattered Clouds 2700 ft
Dew Point 57 °F
Humidity 60%
Rainfall 0.00 in
Snow Depth Not available.
UV 9 out of 12
Pollen 4.60 out of 12
Air Quality Not available.
Flu Activity Not available.
METAR KJKL 301653Z AUTO 00000KT 10SM SCT027 22/14 A3014

More Conditions Fewer Conditions

Pressure 30.14 in
Visibility 10.0 miles
Clouds Scattered Clouds 2700 ft
Dew Point 57 °F
Humidity 60%
Rainfall 0.00 in
Snow Depth Not available.
UV 9 out of 12
Pollen 4.60 out of 12
Air Quality Not available.
Flu Activity Not available.
METAR KJKL 301653Z AUTO 00000KT 10SM SCT027 22/14 A3014

More Conditions Fewer Conditions

10-Day Weather Forecast

Almanac

Astronomy

Jul. 30, 2014 Rise Set
Actual Time 6:35 AM EDT 8:41 PM EDT
Civil Twilight 6:06 AM EDT 9:10 PM EDT
Nautical Twilight 5:30 AM EDT 9:45 PM EDT
Astronomical Twilight 4:52 AM EDT 10:23 PM EDT
Moon 10:00 AM EDT 10:29 PM EDT
Length of Visible Light 15h 04m
Length of Day
14h 06m
Tomorrow will be 1m 45s shorter.
Waxing Crescent, 12% of the Moon is Illuminated
Today
Waxing Crescent
Aug 3
First Quarter
Aug 10
Full
Aug 17
Last Quarter
Aug 25
New

Today's Extremes

State Highs State Lows

Community

WunderPhotos

Upload Photos

1,739,139 photos uploaded!

Nearby

Snow Depth

Station Depth Elevation
No new snow has been reported.

Earthquake Activity

City Distance Mag. Time & Date
No recent earthquake activity has been reported nearby.
Minimum magnitude displayed is 2.5.

Coastal Water Temperatures

Place Temperature
No Stations Reporting

Nearby Weather Stations

Station Location Temp. Heat Index Dew Point Humidity Wind Precip. Elev Updated Type
RAWS PRAWS 12 KY, Jenkins, KY 72 °F 77 °F 54 °F 54% South  at  1 mph 0.00 in / hr 1974 ft 12:47 PM EDT MADIS
Talbert, KY 73.9 °F 77 °F 58 °F 58% North  at  0.0 mph 0.00 in / hr 994 ft 1:15 PM EDT Normal

Show More Stations Show Fewer Stations